Time;durP1;ratioP1;P1;durP2;ratioP2;P2;SDS_P1;SDS_P2;PMS_P1;PMS_P2;Temp;Humidity;BMP_temperature;BMP_pressure;BME280_temperature;BME280_humidity;BME280_pressure;Samples;Min_cycle;Max_cycle;Signal;HPM_P1;HPM_P2
2021/06/23 00:00:36;;;;;;;7.60;6.37;;;;;;;21.24;100.00;96278.09;5052161;28;20629;-86
2021/06/23 00:03:06;;;;;;;7.33;6.03;;;;;;;21.22;100.00;96258.78;5051802;28;20200;-86
2021/06/23 00:05:33;;;;;;;8.00;6.37;;;;;;;21.17;100.00;96243.44;5052243;28;20257;-86
2021/06/23 00:08:00;;;;;;;8.30;5.47;;;;;;;20.97;100.00;96242.88;5051757;28;20216;-86
2021/06/23 00:10:28;;;;;;;9.33;7.47;;;;;;;20.95;100.00;96258.31;5052095;28;20201;-86
2021/06/23 00:13:00;;;;;;;8.03;7.10;;;;;;;20.85;100.00;96265.00;5052006;28;20263;-86
2021/06/23 00:15:27;;;;;;;9.97;7.27;;;;;;;20.73;100.00;96282.00;5052189;28;20569;-86
2021/06/23 00:17:54;;;;;;;7.40;6.73;;;;;;;20.67;100.00;96281.81;5052020;28;20280;-86
2021/06/23 00:20:24;;;;;;;9.03;6.90;;;;;;;20.81;100.00;96341.25;5053156;28;20245;-86
2021/06/23 00:22:52;;;;;;;6.80;6.10;;;;;;;20.84;100.00;96315.97;5056062;28;20229;-85
2021/06/23 00:25:19;;;;;;;6.50;6.00;;;;;;;20.83;100.00;96287.63;5055849;28;20672;-86
2021/06/23 00:27:46;;;;;;;6.47;5.97;;;;;;;20.83;100.00;96245.69;5056211;28;20555;-86
2021/06/23 00:30:16;;;;;;;7.30;6.60;;;;;;;20.78;100.00;96242.06;5055609;28;20242;-86
2021/06/23 00:32:45;;;;;;;7.27;6.67;;;;;;;20.76;100.00;96228.13;5055897;28;20251;-85
2021/06/23 00:35:13;;;;;;;6.13;5.63;;;;;;;20.88;100.00;96221.78;5055370;28;20679;-86
2021/06/23 00:37:42;;;;;;;9.57;6.63;;;;;;;20.88;100.00;96179.06;5055485;28;20202;-86
2021/06/23 00:40:11;;;;;;;7.03;6.33;;;;;;;20.83;100.00;96146.88;5055212;28;20201;-86
2021/06/23 00:42:41;;;;;;;7.40;6.40;;;;;;;20.91;100.00;96135.03;5055509;28;20198;-86
2021/06/23 00:45:12;;;;;;;7.57;6.80;;;;;;;20.97;100.00;96139.50;5055377;28;20194;-87
2021/06/23 00:47:44;;;;;;;7.40;6.67;;;;;;;20.75;100.00;96135.66;5055404;28;20321;-86
2021/06/23 00:50:13;;;;;;;8.13;7.47;;;;;;;20.62;100.00;96148.16;5055135;28;20705;-87
2021/06/23 00:52:45;;;;;;;6.93;6.33;;;;;;;20.64;100.00;96159.47;5055501;28;20197;-87
2021/06/23 00:55:20;;;;;;;8.53;6.97;;;;;;;20.43;100.00;96139.31;5055483;28;20228;-87
2021/06/23 00:57:51;;;;;;;7.77;7.13;;;;;;;20.14;100.00;96156.91;5055507;28;20189;-86
2021/06/23 01:00:21;;;;;;;7.87;7.07;;;;;;;20.04;100.00;96167.25;5055560;28;20182;-86
2021/06/23 01:02:50;;;;;;;8.77;8.03;;;;;;;19.91;100.00;96188.72;5055206;28;20236;-86
2021/06/23 01:05:18;;;;;;;8.13;7.43;;;;;;;20.07;100.00;96182.03;5055128;28;20197;-86
2021/06/23 01:07:47;;;;;;;7.80;7.20;;;;;;;20.25;100.00;96162.53;5055392;28;20197;-87
2021/06/23 01:10:16;;;;;;;8.23;7.43;;;;;;;20.18;100.00;96160.75;5055233;28;20260;-87
2021/06/23 01:13:10;;;;;;;7.83;7.07;;;;;;;20.31;100.00;96153.66;5054970;28;20205;-87
2021/06/23 01:15:40;;;;;;;12.83;7.53;;;;;;;20.58;100.00;96087.44;5042415;28;20198;-86
2021/06/23 01:18:09;;;;;;;7.67;6.97;;;;;;;20.46;100.00;96062.50;5055097;28;20683;-86
2021/06/23 01:20:42;;;;;;;8.10;7.40;;;;;;;20.42;100.00;96049.59;5054672;28;20277;-86
2021/06/23 01:23:11;;;;;;;8.60;7.60;;;;;;;20.53;100.00;96053.38;5055209;28;20247;-86
2021/06/23 01:25:38;;;;;;;8.30;7.60;;;;;;;20.58;100.00;96048.19;5054468;28;20221;-86
2021/06/23 01:28:06;;;;;;;8.13;6.97;;;;;;;20.52;100.00;96041.09;5054721;28;20197;-87
2021/06/23 01:30:34;;;;;;;7.73;7.00;;;;;;;20.62;100.00;96041.38;5054728;28;20202;-86
2021/06/23 01:33:02;;;;;;;8.53;7.63;;;;;;;20.51;100.00;96055.50;5053526;28;20201;-87
2021/06/23 01:35:30;;;;;;;7.97;7.27;;;;;;;20.49;100.00;96086.91;5054514;28;20198;-86
2021/06/23 01:37:58;;;;;;;8.20;6.87;;;;;;;20.40;100.00;96081.06;5054503;28;20257;-86
2021/06/23 01:40:27;;;;;;;8.53;7.70;;;;;;;20.26;100.00;96086.78;5054387;28;20256;-86
2021/06/23 01:42:55;;;;;;;8.63;7.70;;;;;;;20.18;100.00;96102.03;5054566;28;20292;-86
2021/06/23 01:45:22;;;;;;;10.77;7.80;;;;;;;20.22;100.00;96099.75;5054077;28;20202;-85
2021/06/23 01:47:49;;;;;;;8.03;7.33;;;;;;;20.39;100.00;96074.06;5054143;28;20225;-86
2021/06/23 01:50:17;;;;;;;8.77;7.90;;;;;;;20.45;100.00;96051.00;5054288;28;20186;-86
2021/06/23 01:52:44;;;;;;;8.83;7.93;;;;;;;20.28;100.00;96044.66;5054183;28;20194;-86
2021/06/23 01:55:27;;;;;;;8.13;7.43;;;;;;;20.24;100.00;96030.16;5053849;28;20276;-86
2021/06/23 01:58:00;;;;;;;8.63;7.80;;;;;;;20.23;100.00;96013.34;5054424;28;20230;-86
2021/06/23 02:00:34;;;;;;;8.77;7.97;;;;;;;20.25;100.00;95978.41;5054275;28;20225;-86
2021/06/23 02:03:11;;;;;;;8.87;7.90;;;;;;;20.27;100.00;95942.44;5054086;28;20190;-87
2021/06/23 02:05:44;;;;;;;9.70;8.73;;;;;;;20.06;100.00;95930.44;5054111;28;20190;-87
2021/06/23 02:08:30;;;;;;;12.93;8.23;;;;;;;19.99;100.00;95924.38;5054564;28;20186;-87
2021/06/23 02:11:05;;;;;;;12.40;8.33;;;;;;;20.01;100.00;95924.94;5054286;28;20178;-86
2021/06/23 02:16:42;;;;;;;12.07;8.47;;;;;;;20.51;100.00;95897.97;5261175;22;20233;-86
2021/06/23 02:19:10;;;;;;;10.03;8.30;;;;;;;20.66;100.00;95892.19;5090865;28;20262;-86
2021/06/23 02:21:39;;;;;;;8.43;7.67;;;;;;;20.77;100.00;95898.56;5093364;28;20206;-84
2021/06/23 02:24:08;;;;;;;10.43;7.53;;;;;;;20.83;100.00;95895.78;5093763;28;20196;-84
2021/06/23 02:26:36;;;;;;;9.17;8.07;;;;;;;20.82;100.00;95920.88;5093294;28;20239;-85
2021/06/23 02:29:04;;;;;;;9.40;7.77;;;;;;;20.88;100.00;95935.97;5093903;28;20624;-85
2021/06/23 02:31:32;;;;;;;8.87;7.97;;;;;;;20.86;100.00;95939.94;5092871;28;20193;-85
2021/06/23 02:34:05;;;;;;;9.90;8.40;;;;;;;20.94;100.00;95947.59;5093422;28;20254;-85
2021/06/23 02:36:32;;;;;;;11.13;7.67;;;;;;;21.01;100.00;95948.28;5093163;28;20645;-85
2021/06/23 02:39:00;;;;;;;9.33;8.53;;;;;;;21.02;100.00;95960.59;5093301;28;20192;-85
2021/06/23 02:41:27;;;;;;;11.67;8.33;;;;;;;21.02;100.00;95967.81;5092821;28;20225;-85
2021/06/23 02:43:55;;;;;;;9.30;8.37;;;;;;;21.08;100.00;95977.56;5093089;28;20196;-85
2021/06/23 02:46:22;;;;;;;10.03;8.40;;;;;;;20.96;100.00;95998.94;5092940;28;20277;-85
2021/06/23 02:48:51;;;;;;;9.53;8.37;;;;;;;20.88;100.00;96020.63;5092883;28;20286;-85
2021/06/23 02:51:22;;;;;;;8.00;7.40;;;;;;;20.94;100.00;96021.59;5092763;28;20196;-85
2021/06/23 02:53:51;;;;;;;17.00;7.73;;;;;;;21.00;100.00;96009.97;5093099;28;20184;-86
2021/06/23 02:56:19;;;;;;;9.30;8.40;;;;;;;21.03;100.00;96005.00;5092830;28;20585;-86
2021/06/23 02:58:48;;;;;;;8.60;7.73;;;;;;;21.11;100.00;96018.00;5093297;28;20253;-85
2021/06/23 03:01:17;;;;;;;10.80;8.03;;;;;;;21.17;100.00;96016.28;5092701;28;20287;-85
2021/06/23 03:03:46;;;;;;;9.73;8.23;;;;;;;21.13;100.00;96020.47;5093132;28;20689;-84
2021/06/23 03:06:14;;;;;;;8.87;8.07;;;;;;;21.09;100.00;96041.50;5092348;28;20711;-85
2021/06/23 03:08:42;;;;;;;10.90;8.30;;;;;;;21.06;100.00;96057.97;5092809;28;20204;-84
2021/06/23 03:11:10;;;;;;;11.97;8.93;;;;;;;21.12;100.00;96083.75;5092451;28;20200;-85
2021/06/23 03:13:37;;;;;;;10.43;9.40;;;;;;;21.18;100.00;96076.69;5092646;28;20286;-82
2021/06/23 03:16:05;;;;;;;10.53;8.60;;;;;;;21.10;100.00;96099.22;5091814;28;20292;-82
2021/06/23 03:18:33;;;;;;;11.07;8.50;;;;;;;21.16;100.00;96099.34;5092146;28;20200;-84
2021/06/23 03:21:01;;;;;;;9.87;8.97;;;;;;;21.11;100.00;96119.56;5091847;28;20282;-81
2021/06/23 03:23:29;;;;;;;11.93;8.73;;;;;;;21.17;100.00;96133.06;5091042;28;20250;-82
2021/06/23 03:25:58;;;;;;;10.83;8.83;;;;;;;21.18;100.00;96148.03;5092435;28;20200;-82
2021/06/23 03:28:25;;;;;;;9.13;8.03;;;;;;;21.20;100.00;96156.63;5094534;28;20729;-81
2021/06/23 03:30:54;;;;;;;9.07;8.17;;;;;;;21.25;100.00;96164.78;5091377;28;20687;-82
2021/06/23 03:33:21;;;;;;;9.03;7.63;;;;;;;21.26;100.00;96179.78;5091196;28;20331;-82
2021/06/23 03:35:48;;;;;;;10.37;8.17;;;;;;;21.22;100.00;96200.00;5091064;28;20197;-82
2021/06/23 03:38:15;;;;;;;9.13;7.93;;;;;;;21.28;100.00;96196.41;5090864;28;20578;-82
2021/06/23 03:40:43;;;;;;;9.47;8.53;;;;;;;21.29;100.00;96206.88;5090703;28;20210;-83
2021/06/23 03:43:12;;;;;;;8.73;7.93;;;;;;;21.23;100.00;96231.00;5091136;28;20196;-83
2021/06/23 03:45:39;;;;;;;8.37;7.57;;;;;;;21.33;100.00;96239.31;5091211;28;20200;-83
2021/06/23 03:48:07;;;;;;;9.57;8.63;;;;;;;21.25;100.00;96244.97;5090949;28;20310;-84
2021/06/23 03:50:35;;;;;;;8.37;7.53;;;;;;;21.20;100.00;96266.22;5090865;28;20196;-83
2021/06/23 03:53:02;;;;;;;9.00;8.10;;;;;;;21.23;100.00;96266.56;5090770;28;20786;-83
2021/06/23 03:55:30;;;;;;;9.10;8.13;;;;;;;21.26;100.00;96268.00;5090424;28;20188;-84
2021/06/23 03:57:58;;;;;;;10.33;8.33;;;;;;;21.25;100.00;96271.72;5091272;28;20644;-84
2021/06/23 04:00:30;;;;;;;12.50;8.30;;;;;;;21.31;100.00;96273.50;5090478;28;20664;-83
2021/06/23 04:02:57;;;;;;;8.47;7.50;;;;;;;21.27;100.00;96269.63;5090844;28;20664;-83
2021/06/23 04:05:25;;;;;;;7.97;7.27;;;;;;;21.27;100.00;96283.00;5090387;28;20668;-84
2021/06/23 04:07:53;;;;;;;12.30;8.67;;;;;;;21.38;100.00;96279.59;5090466;28;20224;-83
2021/06/23 04:10:20;;;;;;;8.20;7.50;;;;;;;21.37;100.00;96283.28;5090511;28;20287;-83
2021/06/23 04:12:48;;;;;;;9.50;8.53;;;;;;;21.42;100.00;96277.28;5091405;28;20626;-84
2021/06/23 04:15:16;;;;;;;8.40;7.60;;;;;;;21.41;100.00;96284.50;5091473;28;20227;-83
2021/06/23 04:17:46;;;;;;;11.77;7.47;;;;;;;21.50;100.00;96293.00;5091817;28;20177;-83
2021/06/23 04:20:14;;;;;;;8.63;7.43;;;;;;;21.52;100.00;96286.38;5091418;28;20196;-82
2021/06/23 04:22:42;;;;;;;11.20;7.13;;;;;;;21.58;100.00;96277.47;5091657;28;20228;-83
2021/06/23 04:25:11;;;;;;;8.83;7.37;;;;;;;21.56;100.00;96292.09;5091599;28;20245;-83
2021/06/23 04:27:39;;;;;;;9.97;7.63;;;;;;;21.58;100.00;96298.03;5091538;28;20216;-83
2021/06/23 04:30:09;;;;;;;10.73;7.17;;;;;;;21.63;100.00;96300.84;5091035;28;20200;-84
2021/06/23 04:32:36;;;;;;;10.23;7.17;;;;;;;21.59;100.00;96299.66;5091923;28;20196;-84
2021/06/23 04:35:07;;;;;;;13.43;7.60;;;;;;;21.63;100.00;96279.44;5091345;28;20664;-83
2021/06/23 04:37:35;;;;;;;10.03;6.40;;;;;;;21.63;100.00;96292.81;5091318;28;20185;-83
2021/06/23 04:40:03;;;;;;;10.67;7.40;;;;;;;21.68;100.00;96306.31;5090295;28;20340;-83
2021/06/23 04:42:31;;;;;;;10.33;7.67;;;;;;;21.72;100.00;96302.16;5091527;28;20279;-84
2021/06/23 04:44:58;;;;;;;10.20;7.60;;;;;;;21.80;100.00;96306.38;5091455;28;20203;-83
2021/06/23 04:47:25;;;;;;;11.13;7.30;;;;;;;21.85;100.00;96320.66;5091725;28;20581;-83
2021/06/23 04:49:53;;;;;;;9.00;7.20;;;;;;;21.93;100.00;96324.91;5091491;28;20196;-83
2021/06/23 04:52:22;;;;;;;8.40;7.50;;;;;;;21.93;100.00;96332.94;5091423;28;20291;-84
2021/06/23 04:54:49;;;;;;;8.13;7.43;;;;;;;21.94;100.00;96342.56;5091509;28;20231;-84
2021/06/23 04:57:17;;;;;;;10.67;7.10;;;;;;;21.97;100.00;96344.81;5091649;28;20618;-84
2021/06/23 04:59:44;;;;;;;9.77;6.83;;;;;;;22.04;100.00;96364.25;5091166;28;20226;-83
2021/06/23 05:02:12;;;;;;;9.40;7.20;;;;;;;22.09;100.00;96372.41;5091272;28;20287;-84
2021/06/23 05:04:39;;;;;;;8.17;7.30;;;;;;;22.18;100.00;96385.50;5091368;28;20197;-84
2021/06/23 05:07:07;;;;;;;8.20;7.40;;;;;;;22.25;100.00;96389.72;5092069;28;20260;-84
2021/06/23 05:09:37;;;;;;;11.63;7.20;;;;;;;22.34;100.00;96390.19;5094761;28;20669;-83
2021/06/23 05:12:05;;;;;;;11.30;7.60;;;;;;;22.44;100.00;96387.75;5095199;28;20281;-84
2021/06/23 05:14:33;;;;;;;9.33;7.43;;;;;;;22.50;100.00;96388.69;5094908;28;20251;-83
2021/06/23 05:17:01;;;;;;;11.33;7.83;;;;;;;22.53;100.00;96418.53;5094167;28;20232;-83
2021/06/23 05:19:29;;;;;;;9.80;6.87;;;;;;;22.58;100.00;96439.25;5094917;28;20585;-84
2021/06/23 05:22:00;;;;;;;9.53;7.23;;;;;;;22.67;100.00;96443.22;5094601;28;20208;-84
2021/06/23 05:24:28;;;;;;;11.87;8.07;;;;;;;22.82;100.00;96437.41;5094776;28;20272;-84
2021/06/23 05:26:56;;;;;;;10.43;6.83;;;;;;;22.86;100.00;96440.44;5094286;28;20230;-83
2021/06/23 05:29:24;;;;;;;8.67;7.13;;;;;;;22.98;100.00;96444.00;5094601;28;20196;-83
2021/06/23 05:31:51;;;;;;;9.13;8.00;;;;;;;23.15;100.00;96438.75;5094476;28;20207;-83
2021/06/23 05:34:18;;;;;;;13.77;8.07;;;;;;;23.30;100.00;96422.19;5094569;28;20201;-84
2021/06/23 05:36:46;;;;;;;10.70;7.97;;;;;;;23.44;100.00;96442.34;5094164;28;20207;-83
2021/06/23 05:39:13;;;;;;;10.17;8.87;;;;;;;23.56;100.00;96471.84;5094355;28;20678;-84
2021/06/23 05:41:40;;;;;;;14.00;8.50;;;;;;;23.72;100.00;96455.03;5094271;28;20287;-84
2021/06/23 05:44:10;;;;;;;23.70;8.80;;;;;;;23.83;100.00;96446.16;5094669;28;20589;-84
2021/06/23 05:46:37;;;;;;;12.77;9.00;;;;;;;24.05;100.00;96429.38;5094451;28;20628;-83
2021/06/23 05:49:05;;;;;;;9.33;8.43;;;;;;;24.17;100.00;96455.09;5094029;28;20196;-84
2021/06/23 05:51:32;;;;;;;10.27;7.57;;;;;;;24.32;100.00;96478.75;5094104;28;20728;-84
2021/06/23 05:53:59;;;;;;;8.87;7.97;;;;;;;24.41;100.00;96514.13;5094191;28;20196;-84
2021/06/23 05:56:27;;;;;;;9.03;7.87;;;;;;;24.61;100.00;96527.94;5093779;28;20242;-84
2021/06/23 05:58:55;;;;;;;10.87;8.57;;;;;;;24.78;100.00;96519.91;5094114;28;20201;-84
2021/06/23 06:01:24;;;;;;;12.27;7.80;;;;;;;24.88;100.00;96514.72;5093465;28;20204;-84
2021/06/23 06:03:52;;;;;;;13.13;8.53;;;;;;;24.92;100.00;96474.72;5093944;28;20196;-83
2021/06/23 06:06:19;;;;;;;10.00;7.57;;;;;;;25.00;100.00;96465.41;5093702;28;20196;-84
2021/06/23 06:08:47;;;;;;;12.67;7.93;;;;;;;25.24;100.00;96474.97;5094140;28;20303;-84
2021/06/23 06:11:15;;;;;;;10.47;7.53;;;;;;;25.21;100.00;96445.06;5093730;28;20232;-84
2021/06/23 06:13:42;;;;;;;9.77;7.53;;;;;;;25.26;100.00;96445.94;5092598;28;20215;-84
2021/06/23 06:16:09;;;;;;;10.13;7.00;;;;;;;25.33;100.00;96451.97;5092347;28;20664;-84
2021/06/23 06:18:38;;;;;;;8.50;6.80;;;;;;;25.49;100.00;96503.28;5093259;28;20193;-84
2021/06/23 06:21:06;;;;;;;10.67;7.27;;;;;;;25.70;100.00;96499.00;5093680;28;20253;-83
2021/06/23 06:23:34;;;;;;;9.30;6.47;;;;;;;25.73;100.00;96485.06;5093625;28;20227;-84
2021/06/23 06:26:01;;;;;;;9.17;6.87;;;;;;;25.84;100.00;96441.09;5093169;28;20616;-84
2021/06/23 06:28:28;;;;;;;12.33;7.10;;;;;;;26.09;100.00;96451.34;5093463;28;20220;-84
2021/06/23 06:30:56;;;;;;;10.30;8.37;;;;;;;26.17;100.00;96429.31;5093268;28;20226;-84
2021/06/23 06:33:23;;;;;;;8.50;7.60;;;;;;;26.04;100.00;96424.31;5093419;28;20241;-84
2021/06/23 06:35:52;;;;;;;9.13;8.17;;;;;;;25.91;100.00;96397.78;5093338;28;20206;-84
2021/06/23 06:38:19;;;;;;;12.33;8.23;;;;;;;26.11;100.00;96375.66;5093378;28;20583;-84
2021/06/23 06:40:49;;;;;;;14.30;7.83;;;;;;;26.10;100.00;96396.38;5093105;28;20196;-84
2021/06/23 06:43:17;;;;;;;10.45;7.53;;;;;;;26.25;100.00;96417.28;5093020;28;20207;-84
2021/06/23 06:45:45;;;;;;;12.52;8.77;;;;;;;26.37;100.00;96398.28;5092998;28;20287;-84
2021/06/23 06:48:13;;;;;;;10.93;8.02;;;;;;;26.60;100.00;96416.81;5093046;28;20220;-84
2021/06/23 06:50:40;;;;;;;8.50;7.60;;;;;;;26.74;100.00;96414.50;5092876;28;20254;-83
2021/06/23 06:53:09;;;;;;;11.13;8.75;;;;;;;26.92;100.00;96399.81;5092749;28;20196;-83
2021/06/23 06:55:36;;;;;;;10.80;8.20;;;;;;;26.96;100.00;96387.44;5092931;28;20609;-84
2021/06/23 06:58:04;;;;;;;13.80;9.35;;;;;;;27.10;100.00;96394.00;5092976;28;20196;-84
2021/06/23 07:00:31;;;;;;;9.73;8.05;;;;;;;27.11;100.00;96389.41;5092831;28;20199;-84
2021/06/23 07:02:59;;;;;;;12.73;7.88;;;;;;;27.00;100.00;96385.84;5092661;28;20279;-84
2021/06/23 07:05:27;;;;;;;15.15;8.02;;;;;;;27.23;100.00;96396.28;5092669;28;20196;-84
2021/06/23 07:07:54;;;;;;;9.90;8.90;;;;;;;27.45;100.00;96366.41;5092997;28;20232;-84
2021/06/23 07:10:23;;;;;;;8.52;7.72;;;;;;;27.62;100.00;96370.81;5092543;28;20196;-84
2021/06/23 07:12:50;;;;;;;11.82;7.93;;;;;;;27.79;100.00;96395.75;5092511;28;20189;-84
2021/06/23 07:15:18;;;;;;;10.80;7.55;;;;;;;27.69;100.00;96301.16;5092322;28;20235;-84
2021/06/23 07:17:45;;;;;;;9.95;7.88;;;;;;;27.86;100.00;96388.19;5092602;28;20271;-83
2021/06/23 07:20:13;;;;;;;12.07;8.13;;;;;;;28.13;100.00;96388.00;5092740;28;20302;-85
2021/06/23 07:22:40;;;;;;;10.90;8.52;;;;;;;28.24;100.00;96293.44;5092770;28;20200;-84
2021/06/23 07:25:09;;;;;;;13.35;7.97;;;;;;;28.25;100.00;96314.78;5092482;28;20250;-84
2021/06/23 07:27:38;;;;;;;17.90;8.18;;;;;;;28.23;100.00;96262.06;5092358;28;20306;-84
2021/06/23 07:30:08;;;;;;;13.02;8.15;;;;;;;28.30;100.00;96278.81;5091854;28;20607;-84
2021/06/23 07:32:42;;;;;;;10.73;8.25;;;;;;;28.63;100.00;96320.72;5092177;28;20197;-85
2021/06/23 07:37:52;;;;;;;10.00;7.60;;;;;;;28.91;100.00;96265.22;5092352;28;20185;-85
2021/06/23 07:40:22;;;;;;;20.67;8.32;;;;;;;28.90;100.00;96196.78;5092116;28;20226;-84
2021/06/23 07:42:51;;;;;;;13.15;7.40;;;;;;;28.95;100.00;96187.03;5092647;28;20216;-85
2021/06/23 07:45:19;;;;;;;16.23;7.35;;;;;;;28.82;100.00;96199.25;5092291;28;20633;-85
2021/06/23 07:47:47;;;;;;;13.93;7.35;;;;;;;29.02;100.00;96234.38;5092341;28;20219;-84
2021/06/23 07:50:14;;;;;;;10.32;7.32;;;;;;;29.09;100.00;96255.72;5092229;28;20200;-84
2021/06/23 07:52:48;;;;;;;13.57;7.53;;;;;;;28.99;100.00;96223.25;5092230;28;20291;-84
2021/06/23 08:01:47;;;;;;;12.82;7.75;;;;;;;29.01;100.00;96262.50;5029593;28;20181;-85
2021/06/23 08:09:45;;;;;;;14.30;8.57;;;;;;;27.95;100.00;96446.03;5029978;28;20709;-85
2021/06/23 08:12:24;;;;;;;13.13;8.15;;;;;;;28.39;100.00;96401.56;5029650;28;20305;-84
2021/06/23 08:14:54;;;;;;;11.98;8.20;;;;;;;28.82;100.00;96337.19;5029714;28;20217;-84
2021/06/23 08:17:21;;;;;;;11.32;8.35;;;;;;;28.91;100.00;96305.81;5029501;28;20221;-85
2021/06/23 08:19:48;;;;;;;13.20;8.10;;;;;;;29.29;100.00;96323.31;5029787;28;20202;-85
2021/06/23 08:22:16;;;;;;;17.17;9.00;;;;;;;29.50;100.00;96218.41;5029283;28;20718;-84
2021/06/23 08:24:43;;;;;;;13.32;8.60;;;;;;;29.54;100.00;96292.59;5029729;28;20207;-85
2021/06/23 08:27:11;;;;;;;13.73;8.82;;;;;;;29.83;100.00;96294.63;5029495;28;20202;-85
2021/06/23 08:29:38;;;;;;;13.40;8.52;;;;;;;29.45;100.00;96260.97;5072245;28;20315;-84
2021/06/23 08:32:08;;;;;;;15.77;8.73;;;;;;;29.02;100.00;96282.25;5091590;28;20275;-85
2021/06/23 08:34:36;;;;;;;18.73;9.93;;;;;;;28.89;100.00;96319.63;5092200;28;20238;-85
2021/06/23 08:37:03;;;;;;;14.70;8.98;;;;;;;28.83;100.00;96369.41;5091638;28;20197;-85
2021/06/23 08:39:31;;;;;;;14.57;7.70;;;;;;;28.98;100.00;96338.78;5091491;28;20242;-85
2021/06/23 08:41:58;;;;;;;12.88;8.40;;;;;;;29.32;100.00;96286.75;5093734;28;20262;-85
2021/06/23 08:44:25;;;;;;;14.45;8.82;;;;;;;29.65;100.00;96319.66;5095938;28;20200;-86
2021/06/23 08:46:53;;;;;;;13.00;8.85;;;;;;;29.95;100.00;96292.38;5095315;28;20256;-85
2021/06/23 08:49:23;;;;;;;14.48;8.38;;;;;;;29.78;100.00;96260.25;5095428;28;20220;-85
2021/06/23 08:51:50;;;;;;;14.65;8.85;;;;;;;29.45;100.00;96266.41;5094993;28;20198;-85
2021/06/23 08:54:18;;;;;;;13.60;7.78;;;;;;;29.18;100.00;96291.94;5095320;28;20279;-85
2021/06/23 08:56:45;;;;;;;10.20;7.80;;;;;;;28.87;100.00;96418.34;5095438;28;20609;-85
2021/06/23 08:59:13;;;;;;;14.82;8.68;;;;;;;29.29;100.00;96369.31;5095327;28;20726;-85
2021/06/23 09:01:43;;;;;;;12.40;7.70;;;;;;;29.85;100.00;96262.63;5095365;28;20201;-85
2021/06/23 09:04:11;;;;;;;12.60;8.13;;;;;;;30.00;100.00;96183.97;5095038;28;20246;-86
2021/06/23 09:06:51;;;;;;;14.05;7.75;;;;;;;30.13;100.00;96170.81;5095012;28;20215;-85
2021/06/23 09:09:25;;;;;;;11.45;8.50;;;;;;;30.21;100.00;96213.63;5095115;28;20684;-86
2021/06/23 09:11:54;;;;;;;11.00;8.50;;;;;;;30.17;100.00;96142.88;5095192;28;20191;-85
2021/06/23 09:14:23;;;;;;;12.52;7.63;;;;;;;30.40;100.00;96173.84;5094756;28;20204;-86
2021/06/23 09:17:12;;;;;;;18.40;8.65;;;;;;;30.64;100.00;96143.19;5094683;28;20293;-86
2021/06/23 09:19:41;;;;;;;13.93;8.35;;;;;;;30.62;100.00;96150.81;5094970;28;20184;-86
2021/06/23 09:22:42;;;;;;;16.40;9.20;;;;;;;30.68;100.00;96082.66;5094483;28;20196;-86
2021/06/23 09:25:26;;;;;;;13.93;8.60;;;;;;;30.30;100.00;96152.25;5094684;28;20291;-86
2021/06/23 09:27:55;;;;;;;13.13;8.52;;;;;;;30.11;100.00;96129.66;5094891;28;20295;-86
2021/06/23 09:30:25;;;;;;;12.05;8.93;;;;;;;30.20;100.00;96130.66;5094621;28;20196;-85
2021/06/23 09:33:10;;;;;;;10.70;8.02;;;;;;;29.75;100.00;96216.66;5094637;28;20200;-85
2021/06/23 09:35:38;;;;;;;12.05;8.27;;;;;;;29.82;100.00;96217.97;5094389;28;20242;-86
2021/06/23 09:38:07;;;;;;;11.65;8.60;;;;;;;29.70;100.00;96222.13;5094301;28;20196;-86
2021/06/23 09:40:43;;;;;;;14.32;8.93;;;;;;;29.93;100.00;96316.25;5094352;28;20204;-85
2021/06/23 09:43:11;;;;;;;11.10;8.23;;;;;;;30.16;100.00;96191.94;5094581;28;20191;-86
2021/06/23 09:45:38;;;;;;;15.32;9.02;;;;;;;30.30;100.00;96182.88;5094279;28;20687;-85
2021/06/23 09:48:09;;;;;;;13.68;7.88;;;;;;;30.27;100.00;96017.28;5094329;28;20200;-85
2021/06/23 09:50:37;;;;;;;10.70;8.00;;;;;;;30.40;100.00;96016.56;5093977;28;20272;-85
2021/06/23 09:53:08;;;;;;;19.60;8.35;;;;;;;30.48;100.00;95991.53;5093873;28;20283;-85
2021/06/23 09:55:37;;;;;;;20.85;9.63;;;;;;;30.55;100.00;96018.25;5094059;28;20204;-85
2021/06/23 09:58:11;;;;;;;25.42;8.80;;;;;;;30.69;100.00;95996.66;5093925;28;20235;-84
2021/06/23 10:00:58;;;;;;;13.57;8.60;;;;;;;30.92;100.00;96019.41;5094215;28;20275;-85
2021/06/23 10:03:26;;;;;;;16.30;8.27;;;;;;;30.97;100.00;95949.59;5094097;28;20201;-85
2021/06/23 10:05:55;;;;;;;18.65;9.68;;;;;;;31.18;100.00;96036.13;5093797;28;20196;-83
2021/06/23 10:08:27;;;;;;;14.60;8.88;;;;;;;31.23;100.00;95908.44;5093743;28;20285;-85
2021/06/23 10:10:55;;;;;;;16.40;8.55;;;;;;;31.30;100.00;95884.41;5093881;28;20755;-85
2021/06/23 10:13:23;;;;;;;15.32;7.63;;;;;;;31.08;100.00;95830.00;5093880;28;20199;-84
2021/06/23 10:15:51;;;;;;;13.88;7.30;;;;;;;30.95;100.00;95892.09;5093281;28;20236;-85
2021/06/23 10:18:21;;;;;;;13.75;7.35;;;;;;;30.82;100.00;95940.88;5093780;28;20246;-85
2021/06/23 10:20:49;;;;;;;12.80;5.95;;;;;;;30.45;100.00;95855.75;5093874;28;20204;-85
2021/06/23 10:23:18;;;;;;;14.07;7.85;;;;;;;29.98;100.00;95907.03;5094124;28;20219;-86
2021/06/23 10:25:47;;;;;;;15.13;7.65;;;;;;;29.91;100.00;95965.41;5093162;28;20196;-86
2021/06/23 10:28:18;;;;;;;15.95;7.35;;;;;;;30.29;100.00;95985.28;5093521;28;20208;-86
2021/06/23 10:30:47;;;;;;;12.77;7.00;;;;;;;30.88;100.00;95940.50;5093429;28;20196;-86
2021/06/23 10:33:15;;;;;;;23.25;7.93;;;;;;;31.19;100.00;95908.22;5093488;28;20295;-84
2021/06/23 10:35:43;;;;;;;20.67;6.88;;;;;;;31.17;100.00;95844.47;5093333;28;20632;-85
2021/06/23 10:38:12;;;;;;;19.13;7.78;;;;;;;31.23;100.00;95808.78;5093479;28;20208;-85
2021/06/23 10:40:39;;;;;;;13.35;6.88;;;;;;;31.15;100.00;95763.34;5093554;28;20200;-85
2021/06/23 10:43:16;;;;;;;16.05;6.75;;;;;;;30.47;100.00;95778.41;5093240;28;20197;-85
2021/06/23 10:45:44;;;;;;;11.18;5.85;;;;;;;30.45;100.00;95842.97;5092906;28;20184;-85
2021/06/23 10:48:13;;;;;;;17.55;7.07;;;;;;;30.82;100.00;95827.72;5093145;28;20253;-85
2021/06/23 10:50:41;;;;;;;23.70;8.20;;;;;;;31.09;100.00;95796.31;5093042;28;20250;-85
2021/06/23 10:53:29;;;;;;;14.60;7.10;;;;;;;31.06;100.00;95748.06;5093194;28;20199;-85
2021/06/23 10:55:56;;;;;;;17.38;6.63;;;;;;;31.32;100.00;95749.19;5092640;28;20202;-85
2021/06/23 10:58:29;;;;;;;14.68;6.70;;;;;;;31.25;100.00;95718.91;5093265;28;20219;-86
2021/06/23 11:01:08;;;;;;;14.98;7.03;;;;;;;31.36;100.00;95780.06;5092769;28;20277;-85
2021/06/23 11:04:00;;;;;;;15.90;6.65;;;;;;;31.35;100.00;95785.78;5093080;28;20604;-86
2021/06/23 11:06:42;;;;;;;20.48;6.72;;;;;;;31.65;100.00;95784.34;5092619;28;20189;-86
2021/06/23 11:09:24;;;;;;;22.35;8.05;;;;;;;31.68;100.00;95762.78;5092856;28;20212;-86
2021/06/23 11:11:52;;;;;;;16.58;7.72;;;;;;;31.72;100.00;95757.56;5092620;28;20196;-86
2021/06/23 11:14:22;;;;;;;10.75;6.15;;;;;;;32.03;100.00;95801.16;5092752;28;20700;-86
2021/06/23 11:16:50;;;;;;;9.55;7.32;;;;;;;32.19;100.00;95809.78;5092195;28;20289;-85
2021/06/23 11:19:18;;;;;;;12.38;7.35;;;;;;;32.07;100.00;95859.25;5092638;28;20210;-86
2021/06/23 11:21:47;;;;;;;13.98;7.95;;;;;;;31.83;100.00;95777.94;5092331;28;20207;-86
2021/06/23 11:24:16;;;;;;;14.48;8.50;;;;;;;31.79;100.00;95833.22;5092971;28;20201;-87
2021/06/23 11:26:57;;;;;;;14.13;7.25;;;;;;;31.34;100.00;95882.72;5092212;28;20192;-86
2021/06/23 11:29:36;;;;;;;13.32;7.43;;;;;;;30.95;100.00;95864.16;5092372;28;20265;-86
2021/06/23 11:32:09;;;;;;;16.52;7.53;;;;;;;31.21;100.00;95886.19;5092466;28;20176;-87
2021/06/23 11:35:00;;;;;;;13.70;7.10;;;;;;;31.60;100.00;95722.78;5092852;28;20277;-87
2021/06/23 11:37:31;;;;;;;9.82;6.22;;;;;;;31.70;100.00;95668.22;5092121;28;20185;-86
2021/06/23 11:40:20;;;;;;;13.18;5.95;;;;;;;31.73;100.00;95642.34;5092571;28;20568;-86
2021/06/23 11:42:48;;;;;;;16.80;6.43;;;;;;;31.83;100.00;95644.00;5092661;28;20184;-86
2021/06/23 11:45:20;;;;;;;15.38;6.63;;;;;;;31.80;100.00;95650.88;5092239;28;20207;-86
2021/06/23 11:47:48;;;;;;;14.52;6.63;;;;;;;31.90;100.00;95656.09;5092427;28;20204;-86